Time;durP1;ratioP1;P1;durP2;ratioP2;P2;SDS_P1;SDS_P2;PMS_P1;PMS_P2;Temp;Humidity;BMP_temperature;BMP_pressure;BME280_temperature;BME280_humidity;BME280_pressure;Samples;Min_cycle;Max_cycle;Signal;HPM_P1;HPM_P2
2022/09/09 00:01:52;;;;;;;26.30;12.27;;;13.30;99.90;;;;;;5016062;28;20042;-69
2022/09/09 00:04:20;;;;;;;11.68;9.02;;;13.40;99.90;;;;;;5018766;28;20045;-69
2022/09/09 00:07:03;;;;;;;19.92;10.70;;;13.30;99.90;;;;;;5019940;28;20127;-69
2022/09/09 00:09:37;;;;;;;13.68;9.88;;;13.30;99.90;;;;;;5022613;28;20506;-69
2022/09/09 00:12:18;;;;;;;;;;;13.30;99.90;;;;;;5019414;28;20041;-70
2022/09/09 00:15:07;;;;;;;44.53;14.18;;;13.20;99.90;;;;;;5023145;28;19921;-69
2022/09/09 00:17:41;;;;;;;11.25;9.05;;;13.20;99.90;;;;;;5022645;28;20044;-68
2022/09/09 00:20:16;;;;;;;17.67;9.00;;;13.20;99.90;;;;;;5023315;28;20125;-70
2022/09/09 00:23:01;;;;;;;15.55;10.50;;;13.20;99.90;;;;;;5015450;28;20038;-66
2022/09/09 00:25:39;;;;;;;15.60;10.13;;;13.20;99.90;;;;;;5020378;28;20038;-69
2022/09/09 00:28:17;;;;;;;18.00;10.02;;;13.10;99.90;;;;;;5019324;28;20046;-69
2022/09/09 00:30:43;;;;;;;13.95;9.65;;;13.10;99.90;;;;;;5021304;28;20029;-69
2022/09/09 00:33:15;;;;;;;16.15;9.77;;;13.10;99.90;;;;;;5017895;28;20119;-69
2022/09/09 00:35:53;;;;;;;12.27;9.18;;;13.10;99.90;;;;;;5018154;28;20494;-69
2022/09/09 00:38:39;;;;;;;17.23;10.93;;;13.10;99.90;;;;;;5019875;28;20050;-69
2022/09/09 00:41:20;;;;;;;16.88;10.07;;;13.10;99.90;;;;;;5018798;28;20038;-70
2022/09/09 00:43:57;;;;;;;22.60;12.18;;;13.10;99.90;;;;;;5018158;28;20164;-70
2022/09/09 00:47:01;;;;;;;19.80;11.13;;;13.10;99.90;;;;;;5019611;28;20441;-69
2022/09/09 00:49:35;;;;;;;20.08;11.15;;;13.10;99.90;;;;;;5016914;28;20519;-69
2022/09/09 00:52:01;;;;;;;;;;;13.10;99.90;;;;;;5021086;28;20033;-69
2022/09/09 00:54:51;;;;;;;20.70;11.45;;;13.10;99.90;;;;;;5019927;28;20034;-69
2022/09/09 00:57:31;;;;;;;18.83;11.85;;;13.10;99.90;;;;;;5021828;28;20381;-69
2022/09/09 01:00:19;;;;;;;16.83;10.15;;;13.00;99.90;;;;;;5018792;28;20104;-69
2022/09/09 01:02:55;;;;;;;18.95;12.13;;;13.10;99.90;;;;;;5019143;28;20053;-70
2022/09/09 01:05:44;;;;;;;17.80;11.55;;;13.10;99.90;;;;;;5021951;28;20108;-70
2022/09/09 01:08:50;;;;;;;20.77;11.40;;;13.10;99.90;;;;;;5028951;28;20073;-69
2022/09/09 01:11:34;;;;;;;;;;;13.20;99.90;;;;;;5018418;28;20477;-70
2022/09/09 01:14:27;;;;;;;26.83;14.43;;;13.20;99.90;;;;;;5022619;28;19924;-69
2022/09/09 01:16:59;;;;;;;42.75;15.35;;;13.20;99.90;;;;;;5020327;28;20041;-70
2022/09/09 01:19:40;;;;;;;25.27;14.50;;;13.30;99.90;;;;;;5022701;28;20097;-70
2022/09/09 01:22:41;;;;;;;41.30;17.40;;;13.40;99.90;;;;;;5020113;28;20045;-67
2022/09/09 01:25:43;;;;;;;17.33;11.80;;;13.40;99.90;;;;;;5006893;28;20072;-68
2022/09/09 01:28:13;;;;;;;29.02;14.13;;;13.40;99.90;;;;;;5019922;28;20041;-69
2022/09/09 01:30:41;;;;;;;22.90;12.15;;;13.50;99.90;;;;;;5015115;28;20038;-68
2022/09/09 01:33:16;;;;;;;27.20;13.43;;;13.50;99.90;;;;;;5001202;28;20516;-69
2022/09/09 01:35:54;;;;;;;23.15;12.85;;;13.60;99.90;;;;;;5012648;28;20477;-69
2022/09/09 01:38:21;;;;;;;23.05;12.73;;;13.60;99.90;;;;;;5033996;28;20450;-69
2022/09/09 01:40:48;;;;;;;26.08;13.20;;;13.70;99.90;;;;;;5017111;28;20390;-68
2022/09/09 01:43:14;;;;;;;26.00;13.25;;;13.70;99.90;;;;;;5022078;28;20463;-69
2022/09/09 01:45:42;;;;;;;20.38;11.07;;;13.80;99.90;;;;;;5018997;28;20124;-69
2022/09/09 01:48:08;;;;;;;26.10;12.30;;;13.80;99.90;;;;;;5020087;28;20053;-69
2022/09/09 01:50:33;;;;;;;15.57;10.18;;;13.90;99.90;;;;;;5020696;28;20113;-69
2022/09/09 01:53:01;;;;;;;30.33;13.38;;;13.90;99.90;;;;;;5024712;28;20042;-69
2022/09/09 01:55:39;;;;;;;19.40;10.10;;;14.00;99.90;;;;;;5022019;28;20510;-69
2022/09/09 01:58:29;;;;;;;23.73;12.18;;;14.00;99.90;;;;;;5020798;28;20510;-69
2022/09/09 02:01:15;;;;;;;16.92;10.00;;;14.00;99.90;;;;;;5016993;28;20045;-68
2022/09/09 02:03:46;;;;;;;22.70;10.93;;;14.10;99.90;;;;;;5026639;28;20053;-67
2022/09/09 02:06:30;;;;;;;15.02;9.20;;;14.10;99.90;;;;;;5016319;28;20077;-67
2022/09/09 02:08:57;;;;;;;20.02;10.55;;;14.10;99.90;;;;;;5054290;28;20064;-67
2022/09/09 02:11:28;;;;;;;39.40;12.90;;;14.20;99.90;;;;;;5018031;28;20474;-66
2022/09/09 02:14:02;;;;;;;13.50;9.02;;;14.20;99.90;;;;;;5022645;28;20056;-66
2022/09/09 02:16:42;;;;;;;18.13;9.77;;;14.20;99.90;;;;;;5048520;28;20332;-66
2022/09/09 02:19:28;;;;;;;24.48;10.23;;;14.20;99.90;;;;;;5019310;28;20038;-67
2022/09/09 02:21:56;;;;;;;25.08;10.35;;;14.20;99.90;;;;;;5015112;28;20046;-65
2022/09/09 02:24:22;;;;;;;37.85;12.52;;;14.20;99.90;;;;;;5015754;28;20085;-67
2022/09/09 02:26:52;;;;;;;32.20;13.07;;;14.20;99.90;;;;;;5018795;28;20072;-68
2022/09/09 02:29:26;;;;;;;22.10;10.40;;;14.30;99.90;;;;;;5021180;28;20552;-67
2022/09/09 02:31:56;;;;;;;48.03;14.70;;;14.30;99.90;;;;;;5018330;28;20072;-68
2022/09/09 02:34:25;;;;;;;27.50;12.23;;;14.30;99.90;;;;;;5020172;28;20504;-68
2022/09/09 02:36:54;;;;;;;19.88;10.85;;;14.30;99.90;;;;;;5018139;28;20042;-68
2022/09/09 02:39:20;;;;;;;18.60;9.15;;;14.30;99.90;;;;;;5053172;28;20532;-68
2022/09/09 02:41:47;;;;;;;16.65;9.88;;;14.30;99.90;;;;;;5017136;28;20076;-67
2022/09/09 02:44:16;;;;;;;18.98;9.32;;;14.40;99.90;;;;;;5019432;28;20045;-67
2022/09/09 02:46:58;;;;;;;28.17;10.82;;;14.30;99.90;;;;;;5016398;28;20041;-68
2022/09/09 02:49:40;;;;;;;53.05;14.20;;;14.40;99.90;;;;;;5016059;28;20386;-67
2022/09/09 02:52:08;;;;;;;20.50;9.10;;;14.40;99.90;;;;;;5014505;28;20564;-66
2022/09/09 02:54:37;;;;;;;15.98;8.65;;;14.40;99.90;;;;;;5023636;28;20041;-67
2022/09/09 02:57:11;;;;;;;50.58;14.15;;;14.40;99.90;;;;;;5015711;28;20064;-67
2022/09/09 02:59:37;;;;;;;51.60;14.73;;;14.40;99.90;;;;;;5019143;28;20127;-67
2022/09/09 03:02:03;;;;;;;21.73;10.57;;;14.40;99.90;;;;;;5021689;28;20034;-68
2022/09/09 03:04:30;;;;;;;15.77;8.80;;;14.40;99.90;;;;;;5018327;28;20077;-69
2022/09/09 03:06:57;;;;;;;46.55;13.32;;;14.40;99.90;;;;;;5017674;28;20046;-68
2022/09/09 03:09:23;;;;;;;18.45;9.18;;;14.40;99.90;;;;;;5015819;28;20406;-67
2022/09/09 03:11:49;;;;;;;22.67;10.02;;;14.40;99.90;;;;;;5013561;28;20045;-68
2022/09/09 03:14:16;;;;;;;13.32;8.00;;;14.40;99.90;;;;;;5014383;28;20045;-68
2022/09/09 03:16:42;;;;;;;16.08;9.32;;;14.30;99.90;;;;;;5019632;28;20050;-67
2022/09/09 03:19:09;;;;;;;18.20;8.93;;;14.40;99.90;;;;;;5019819;28;20042;-67
2022/09/09 03:21:35;;;;;;;30.38;12.00;;;14.30;99.90;;;;;;5019353;28;20037;-68
2022/09/09 03:24:03;;;;;;;36.38;13.07;;;14.40;99.90;;;;;;5021188;28;20189;-69
2022/09/09 03:26:30;;;;;;;18.10;10.18;;;14.40;99.90;;;;;;5020499;28;20042;-68
2022/09/09 03:28:56;;;;;;;16.90;9.30;;;14.30;99.90;;;;;;5019482;28;20054;-69
2022/09/09 03:31:22;;;;;;;16.30;8.70;;;14.30;99.90;;;;;;5020277;28;20030;-68
2022/09/09 03:33:47;;;;;;;17.55;10.25;;;14.30;99.90;;;;;;5016566;28;20057;-68
2022/09/09 03:36:14;;;;;;;16.45;9.20;;;14.30;99.90;;;;;;5017818;28;20125;-69
2022/09/09 03:38:41;;;;;;;15.48;9.20;;;14.30;99.90;;;;;;5023206;28;20249;-68
2022/09/09 03:41:07;;;;;;;27.00;12.07;;;14.30;99.90;;;;;;5022599;28;20342;-69
2022/09/09 03:43:34;;;;;;;17.52;9.23;;;14.30;99.90;;;;;;5021872;28;20048;-68
2022/09/09 03:46:00;;;;;;;26.67;12.70;;;14.20;99.90;;;;;;5021781;28;20044;-68
2022/09/09 03:48:27;;;;;;;22.80;13.00;;;14.30;99.90;;;;;;5021947;28;20033;-68
2022/09/09 03:50:55;;;;;;;27.38;13.63;;;14.20;99.90;;;;;;5025218;28;20037;-67
2022/09/09 03:53:24;;;;;;;17.90;12.10;;;14.30;99.90;;;;;;5022032;28;20455;-68
2022/09/09 03:55:54;;;;;;;20.38;12.07;;;14.30;99.90;;;;;;5015627;28;20641;-68
2022/09/09 03:58:24;;;;;;;18.98;11.63;;;14.20;99.90;;;;;;5023943;28;20393;-68
2022/09/09 04:00:54;;;;;;;19.30;11.35;;;14.30;99.90;;;;;;5018393;28;20516;-68
2022/09/09 04:03:20;;;;;;;15.57;11.02;;;14.30;99.90;;;;;;5021372;28;20045;-68
2022/09/09 04:05:49;;;;;;;18.25;11.43;;;14.30;99.90;;;;;;5023404;28;20091;-68
2022/09/09 04:08:14;;;;;;;32.10;14.15;;;14.30;99.90;;;;;;5025214;28;20033;-68
2022/09/09 04:10:41;;;;;;;41.85;15.00;;;14.30;99.90;;;;;;5020673;28;20057;-68
2022/09/09 04:13:07;;;;;;;18.50;10.93;;;14.30;99.90;;;;;;5021203;28;20099;-69
2022/09/09 04:15:35;;;;;;;16.95;10.63;;;14.30;99.90;;;;;;5020717;28;20033;-68
2022/09/09 04:18:01;;;;;;;17.40;10.38;;;14.30;99.90;;;;;;5054269;28;20111;-67
2022/09/09 04:20:26;;;;;;;35.47;15.23;;;14.30;99.90;;;;;;5022213;28;20350;-68
2022/09/09 04:22:52;;;;;;;28.15;13.20;;;14.20;99.90;;;;;;5020657;28;20081;-68
2022/09/09 04:25:18;;;;;;;49.83;16.05;;;14.30;99.90;;;;;;5023941;28;20045;-68
2022/09/09 04:27:44;;;;;;;55.40;16.98;;;14.30;99.90;;;;;;5020479;28;20038;-67
2022/09/09 04:30:10;;;;;;;19.67;12.80;;;14.20;99.90;;;;;;5019493;28;20050;-68
2022/09/09 04:32:36;;;;;;;51.08;17.92;;;14.30;99.90;;;;;;5025719;28;20041;-67
2022/09/09 04:35:02;;;;;;;41.28;16.38;;;14.20;99.90;;;;;;5021757;28;20030;-68
2022/09/09 04:37:28;;;;;;;33.85;16.02;;;14.20;99.90;;;;;;5024618;28;20114;-68
2022/09/09 04:39:54;;;;;;;49.10;18.55;;;14.20;99.90;;;;;;5023195;28;20037;-68
2022/09/09 04:42:19;;;;;;;71.18;20.65;;;14.20;99.90;;;;;;5025184;28;20033;-68
2022/09/09 04:44:45;;;;;;;24.48;14.07;;;14.10;99.90;;;;;;5025175;28;20131;-68
2022/09/09 04:47:11;;;;;;;83.13;22.90;;;14.10;99.90;;;;;;5019958;28;20116;-68
2022/09/09 04:49:38;;;;;;;83.00;22.08;;;14.10;99.90;;;;;;5020800;28;20038;-68
2022/09/09 04:52:04;;;;;;;21.15;14.77;;;14.10;99.90;;;;;;5027109;28;20037;-68
2022/09/09 04:54:29;;;;;;;34.92;16.48;;;14.10;99.90;;;;;;5026350;28;20112;-68
2022/09/09 04:56:55;;;;;;;22.05;13.57;;;14.00;99.90;;;;;;5024925;28;20055;-68
2022/09/09 04:59:21;;;;;;;58.05;18.65;;;14.00;99.90;;;;;;5022538;28;20080;-68
2022/09/09 05:01:48;;;;;;;44.95;17.02;;;14.00;99.90;;;;;;5025437;28;20080;-69
2022/09/09 05:04:16;;;;;;;26.10;14.98;;;14.00;99.90;;;;;;5019717;28;20030;-69
2022/09/09 05:06:42;;;;;;;40.67;17.33;;;14.00;99.90;;;;;;5021433;28;20046;-69
2022/09/09 05:09:08;;;;;;;28.42;14.98;;;14.00;99.90;;;;;;5028199;28;20041;-69
2022/09/09 05:11:38;;;;;;;25.15;14.90;;;13.90;99.90;;;;;;5015930;28;20563;-69
2022/09/09 05:14:04;;;;;;;22.60;13.80;;;13.90;99.90;;;;;;5019698;28;20045;-68
2022/09/09 05:16:30;;;;;;;15.57;12.38;;;13.90;99.90;;;;;;5020388;28;20095;-68
2022/09/09 05:18:56;;;;;;;29.35;15.52;;;13.90;99.90;;;;;;5026597;28;20070;-69
2022/09/09 05:21:25;;;;;;;45.17;18.17;;;13.80;99.90;;;;;;5022747;28;20048;-68
2022/09/09 05:23:51;;;;;;;40.75;16.00;;;13.90;99.90;;;;;;5022162;28;20038;-68
2022/09/09 05:26:19;;;;;;;21.05;13.02;;;13.80;99.90;;;;;;5025582;28;20039;-69
2022/09/09 05:28:46;;;;;;;27.63;14.57;;;13.80;99.90;;;;;;5020046;28;20033;-69
2022/09/09 05:31:13;;;;;;;49.90;18.38;;;13.90;99.90;;;;;;5024169;28;20121;-68
2022/09/09 05:33:43;;;;;;;23.67;14.23;;;13.70;99.90;;;;;;5044188;28;20072;-68
2022/09/09 05:36:17;;;;;;;22.75;14.15;;;13.80;99.90;;;;;;5046981;28;20244;-68
2022/09/09 05:38:43;;;;;;;20.00;12.55;;;13.80;99.90;;;;;;5017618;28;20557;-68
2022/09/09 05:41:11;;;;;;;31.13;15.43;;;13.80;99.90;;;;;;5023086;28;20081;-68
2022/09/09 05:43:38;;;;;;;24.13;13.85;;;13.80;99.90;;;;;;5019543;28;20524;-67
2022/09/09 05:46:06;;;;;;;44.97;17.90;;;13.80;99.90;;;;;;5021692;28;20078;-67
2022/09/09 05:48:34;;;;;;;16.23;12.70;;;13.80;99.90;;;;;;5022655;28;20041;-67
2022/09/09 05:51:00;;;;;;;24.20;14.60;;;13.90;99.90;;;;;;5019890;28;20123;-67
2022/09/09 05:53:27;;;;;;;17.30;12.40;;;13.90;99.90;;;;;;5050474;28;20065;-67
2022/09/09 05:56:04;;;;;;;36.95;16.60;;;13.90;99.90;;;;;;5019943;28;20052;-67
2022/09/09 05:58:34;;;;;;;21.05;14.23;;;14.00;99.90;;;;;;5025073;28;20111;-67
2022/09/09 06:01:14;;;;;;;16.30;13.35;;;14.10;99.90;;;;;;5019690;28;20099;-67
2022/09/09 06:03:41;;;;;;;25.55;15.20;;;14.10;99.90;;;;;;5015984;28;20468;-67
2022/09/09 06:06:10;;;;;;;37.22;17.13;;;14.20;99.90;;;;;;5022493;28;20148;-68
2022/09/09 06:08:38;;;;;;;32.78;15.88;;;14.20;99.90;;;;;;5023843;28;20088;-68
2022/09/09 06:11:08;;;;;;;13.75;11.20;;;14.20;99.90;;;;;;5024148;28;20492;-67
2022/09/09 06:13:36;;;;;;;26.27;14.48;;;14.20;99.90;;;;;;5023255;28;20041;-67
2022/09/09 06:16:04;;;;;;;21.65;13.55;;;14.20;99.90;;;;;;5023290;28;20093;-67
2022/09/09 06:18:29;;;;;;;15.68;12.50;;;14.30;99.90;;;;;;5018468;28;20457;-66
2022/09/09 06:21:06;;;;;;;15.50;10.98;;;14.30;99.90;;;;;;5017117;28;20045;-66
2022/09/09 06:23:34;;;;;;;13.25;11.00;;;14.30;99.90;;;;;;5012685;28;20057;-66
2022/09/09 06:26:12;;;;;;;16.67;13.10;;;14.30;99.90;;;;;;5017699;28;20095;-66
2022/09/09 06:28:38;;;;;;;34.60;15.48;;;14.30;99.90;;;;;;5015861;28;20037;-67
2022/09/09 06:31:07;;;;;;;12.23;10.25;;;14.40;99.90;;;;;;5020698;28;20125;-67
2022/09/09 06:33:41;;;;;;;17.85;11.98;;;14.50;99.90;;;;;;5018087;28;20060;-65
2022/09/09 06:36:10;;;;;;;;;;;14.50;99.90;;;;;;5024407;28;20040;-64
2022/09/09 06:38:35;;;;;;;12.40;9.93;;;14.40;99.90;;;;;;5021683;28;19927;-66
2022/09/09 06:41:01;;;;;;;22.83;12.27;;;14.50;99.90;;;;;;5021611;28;20204;-68
2022/09/09 06:43:28;;;;;;;16.77;11.70;;;14.50;99.90;;;;;;5016607;28;20498;-67
2022/09/09 06:45:59;;;;;;;16.48;13.30;;;14.50;99.90;;;;;;5019484;28;20124;-69
2022/09/09 06:48:28;;;;;;;19.67;12.32;;;14.60;99.90;;;;;;5013528;28;20062;-68
2022/09/09 06:51:13;;;;;;;13.27;10.95;;;14.60;99.90;;;;;;5025537;28;20497;-68
2022/09/09 06:53:40;;;;;;;14.68;11.23;;;14.70;99.90;;;;;;5014984;28;20081;-67
2022/09/09 06:56:18;;;;;;;15.52;10.38;;;14.80;99.90;;;;;;5022368;28;20045;-66
2022/09/09 06:58:44;;;;;;;20.75;11.82;;;14.90;99.90;;;;;;5018880;28;20084;-66
2022/09/09 07:01:12;;;;;;;21.45;11.80;;;15.00;99.90;;;;;;5023068;28;20038;-67
2022/09/09 07:03:39;;;;;;;11.07;10.00;;;15.00;99.90;;;;;;5013183;28;20492;-67
2022/09/09 07:06:07;;;;;;;21.25;12.38;;;15.20;99.90;;;;;;5019766;28;20047;-67
2022/09/09 07:08:33;;;;;;;17.58;11.23;;;15.30;99.90;;;;;;5015024;28;20460;-67
2022/09/09 07:11:07;;;;;;;22.90;13.23;;;15.40;99.90;;;;;;5027853;28;20613;-67
2022/09/09 07:13:33;;;;;;;18.70;12.10;;;15.50;99.90;;;;;;5014729;28;20120;-67
2022/09/09 07:16:11;;;;;;;19.77;12.80;;;15.70;99.90;;;;;;5022068;28;20486;-67
2022/09/09 07:18:37;;;;;;;12.00;9.57;;;15.80;99.90;;;;;;5018661;28;20464;-68
2022/09/09 07:21:04;;;;;;;10.65;9.13;;;15.90;99.90;;;;;;5017346;28;20068;-68
2022/09/09 07:23:31;;;;;;;8.98;8.07;;;16.10;99.90;;;;;;5022656;28;20095;-67
2022/09/09 07:25:57;;;;;;;11.68;8.07;;;16.30;99.90;;;;;;5022951;28;20124;-67
2022/09/09 07:28:24;;;;;;;8.98;7.82;;;16.30;99.90;;;;;;5021972;28;20068;-68
2022/09/09 07:30:57;;;;;;;11.00;7.88;;;16.40;99.90;;;;;;5015538;28;20038;-68
2022/09/09 07:33:24;;;;;;;13.02;7.78;;;16.50;99.90;;;;;;5017104;28;20053;-68
2022/09/09 07:35:50;;;;;;;10.27;7.25;;;16.50;99.90;;;;;;5018025;28;20121;-68
2022/09/09 07:38:16;;;;;;;13.48;8.68;;;16.60;99.90;;;;;;5019703;28;20476;-68
2022/09/09 07:40:42;;;;;;;11.38;8.93;;;16.80;99.90;;;;;;5024336;28;20056;-68
2022/09/09 07:43:08;;;;;;;14.13;7.97;;;16.90;99.90;;;;;;5019355;28;20062;-68
2022/09/09 07:45:35;;;;;;;8.73;6.78;;;17.20;99.90;;;;;;5021948;28;20033;-68
2022/09/09 07:48:02;;;;;;;10.70;6.80;;;17.30;99.90;;;;;;5019488;28;20497;-68
2022/09/09 07:50:28;;;;;;;13.25;7.72;;;17.60;99.90;;;;;;5021273;28;20464;-68
2022/09/09 07:52:53;;;;;;;7.28;5.90;;;17.70;99.90;;;;;;5022469;28;20599;-68
2022/09/09 07:55:20;;;;;;;8.18;6.70;;;18.00;99.90;;;;;;5014414;28;20085;-67
2022/09/09 07:57:46;;;;;;;10.10;6.53;;;18.30;99.90;;;;;;5016163;28;20045;-67
2022/09/09 08:00:14;;;;;;;10.50;6.25;;;18.70;99.90;;;;;;5017149;28;20413;-68
2022/09/09 08:02:40;;;;;;;10.32;5.85;;;18.90;99.90;;;;;;5017534;28;20041;-67
2022/09/09 08:05:06;;;;;;;8.48;5.28;;;19.40;99.90;;;;;;5019144;28;20133;-67
2022/09/09 08:07:32;;;;;;;8.75;5.25;;;19.90;99.90;;;;;;5008058;28;20054;-68
2022/09/09 08:09:57;;;;;;;8.45;4.97;;;20.50;99.90;;;;;;5025982;28;20037;-67
2022/09/09 08:12:23;;;;;;;9.73;4.70;;;20.50;99.90;;;;;;5022324;28;20320;-67
2022/09/09 08:14:49;;;;;;;8.95;4.40;;;20.50;99.90;;;;;;5025308;28;20043;-67
2022/09/09 08:17:15;;;;;;;8.68;5.10;;;20.10;99.90;;;;;;5028496;28;20046;-67
2022/09/09 08:19:40;;;;;;;9.23;4.95;;;19.60;99.90;;;;;;5024566;28;20034;-67
2022/09/09 08:22:07;;;;;;;9.55;4.70;;;19.20;99.90;;;;;;5018706;28;20049;-67
2022/09/09 08:24:33;;;;;;;8.23;5.60;;;18.80;99.90;;;;;;5028337;28;20048;-67
2022/09/09 08:26:59;;;;;;;7.20;4.85;;;18.60;99.90;;;;;;5018224;28;20046;-67
2022/09/09 08:29:25;;;;;;;11.10;5.25;;;18.30;99.90;;;;;;5029886;28;20029;-68
2022/09/09 08:31:57;;;;;;;8.02;5.03;;;18.20;99.90;;;;;;5025755;28;20079;-67
2022/09/09 08:34:24;;;;;;;9.63;5.35;;;18.50;99.90;;;;;;5027197;28;20041;-67
2022/09/09 08:36:50;;;;;;;11.50;5.70;;;18.80;99.90;;;;;;5026726;28;20057;-67
2022/09/09 08:39:18;;;;;;;9.07;5.07;;;19.00;99.90;;;;;;5025823;28;20045;-68
2022/09/09 08:42:02;;;;;;;8.77;6.03;;;18.90;99.90;;;;;;5024122;28;20037;-67
2022/09/09 08:45:04;;;;;;;10.47;6.00;;;18.90;99.90;;;;;;5029358;28;20091;-68
2022/09/09 08:48:11;;;;;;;7.07;4.13;;;18.70;99.90;;;;;;5026399;28;20054;-68
2022/09/09 08:50:40;;;;;;;9.15;4.13;;;18.60;99.90;;;;;;5011344;28;20149;-68
2022/09/09 08:53:20;;;;;;;9.07;4.03;;;18.50;99.90;;;;;;5008629;28;20501;-68
2022/09/09 08:55:55;;;;;;;8.63;3.75;;;18.70;99.90;;;;;;5022275;28;20088;-68
2022/09/09 08:58:21;;;;;;;;;;;18.60;99.90;;;;;;5023349;28;20060;-68
2022/09/09 09:01:16;;;;;;;7.22;3.97;;;18.50;99.90;;;;;;5027663;28;19982;-68
2022/09/09 09:04:09;;;;;;;8.32;3.47;;;18.90;99.90;;;;;;5022858;28;20041;-68
2022/09/09 09:06:59;;;;;;;8.25;3.30;;;19.30;99.90;;;;;;5042221;28;20045;-68
2022/09/09 09:09:52;;;;;;;9.55;3.45;;;19.50;99.90;;;;;;5030431;28;20415;-68
2022/09/09 09:12:23;;;;;;;10.15;3.47;;;19.40;99.90;;;;;;5024639;28;20037;-68
2022/09/09 09:14:49;;;;;;;9.27;3.05;;;19.20;99.90;;;;;;5027347;28;20393;-69
2022/09/09 09:17:19;;;;;;;9.52;3.22;;;19.00;99.90;;;;;;5028317;28;20044;-68
2022/09/09 09:19:46;;;;;;;13.68;2.90;;;18.70;99.90;;;;;;5028790;28;20034;-68
2022/09/09 09:22:29;;;;;;;12.63;3.13;;;18.60;99.90;;;;;;5027881;28;20067;-67
2022/09/09 09:25:01;;;;;;;9.38;2.55;;;18.90;99.90;;;;;;5030631;28;20029;-68
2022/09/09 09:27:34;;;;;;;8.95;2.50;;;19.30;99.90;;;;;;5028126;28;20033;-69
2022/09/09 09:30:21;;;;;;;9.38;3.15;;;19.70;99.90;;;;;;5028576;28;20040;-69
2022/09/09 09:33:11;;;;;;;7.78;2.35;;;19.70;99.90;;;;;;5058462;28;20109;-69
2022/09/09 09:35:37;;;;;;;7.88;2.33;;;19.90;99.90;;;;;;5029235;28;20033;-69
2022/09/09 09:38:17;;;;;;;9.35;2.90;;;20.00;99.90;;;;;;5024363;28;20044;-69
2022/09/09 09:41:08;;;;;;;9.07;2.30;;;20.00;99.90;;;;;;5032123;28;20048;-69
2022/09/09 09:43:36;;;;;;;13.60;2.50;;;19.80;99.90;;;;;;5034061;28;20057;-68
2022/09/09 09:46:04;;;;;;;8.95;2.40;;;19.60;99.90;;;;;;5038104;28;20060;-69
2022/09/09 09:48:30;;;;;;;9.10;2.40;;;19.30;99.90;;;;;;5035515;28;20033;-69
2022/09/09 09:51:07;;;;;;;9.65;2.20;;;19.20;99.90;;;;;;5041120;28;20038;-68
2022/09/09 09:53:35;;;;;;;9.05;1.90;;;19.10;99.90;;;;;;5041693;28;20041;-69
2022/09/09 09:56:02;;;;;;;8.95;2.63;;;19.40;99.90;;;;;;5065471;28;20052;-69
2022/09/09 09:58:33;;;;;;;7.10;2.00;;;20.10;99.90;;;;;;5038347;28;20379;-69
2022/09/09 10:01:00;;;;;;;10.40;2.50;;;20.70;99.90;;;;;;5046883;28;20049;-68
2022/09/09 10:03:29;;;;;;;8.43;2.17;;;20.80;99.90;;;;;;5033977;28;20052;-68
2022/09/09 10:05:56;;;;;;;5.28;1.40;;;20.70;99.90;;;;;;5028746;28;20431;-68
2022/09/09 10:08:24;;;;;;;8.43;1.60;;;20.80;99.90;;;;;;5034065;28;20037;-70
2022/09/09 10:10:55;;;;;;;8.80;1.63;;;21.10;99.90;;;;;;5031424;28;20902;-70
2022/09/09 10:13:49;;;;;;;5.38;1.52;;;21.50;99.90;;;;;;5028470;28;20038;-70
2022/09/09 10:16:23;;;;;;;8.07;1.42;;;21.90;99.90;;;;;;5028156;28;20033;-70
2022/09/09 10:18:51;;;;;;;6.85;1.42;;;21.90;99.90;;;;;;5021388;28;20038;-70
2022/09/09 10:21:32;;;;;;;7.13;1.98;;;21.80;99.90;;;;;;5020275;28;20068;-70
2022/09/09 10:24:22;;;;;;;7.90;1.83;;;21.60;99.90;;;;;;5020322;28;20050;-70
2022/09/09 10:26:58;;;;;;;6.90;1.52;;;21.30;99.90;;;;;;5025592;28;20187;-70
2022/09/09 10:29:53;;;;;;;5.97;1.38;;;20.90;99.90;;;;;;5019065;28;20362;-70
2022/09/09 10:32:44;;;;;;;7.07;1.33;;;20.80;99.90;;;;;;5024277;28;20033;-70
2022/09/09 10:35:30;;;;;;;7.85;2.30;;;21.30;99.90;;;;;;5023050;28;20456;-70
2022/09/09 10:38:17;;;;;;;5.57;1.33;;;21.60;99.90;;;;;;5027441;28;20038;-70
2022/09/09 10:40:47;;;;;;;6.50;1.40;;;22.00;99.90;;;;;;5018704;28;20497;-71
2022/09/09 10:43:17;;;;;;;6.35;1.45;;;22.60;99.90;;;;;;5020696;28;20518;-70
2022/09/09 10:46:27;;;;;;;7.05;1.27;;;22.80;99.90;;;;;;5019011;28;20025;-70
2022/09/09 10:49:27;;;;;;;7.55;1.50;;;22.60;99.90;;;;;;5016891;28;20028;-70
2022/09/09 10:52:19;;;;;;;6.50;1.50;;;22.10;99.90;;;;;;5024259;28;20549;-71
2022/09/09 10:55:10;;;;;;;6.80;1.52;;;21.80;99.90;;;;;;5026375;28;20059;-70
2022/09/09 10:57:53;;;;;;;5.50;1.20;;;21.60;99.90;;;;;;5025751;28;20385;-70
2022/09/09 11:00:22;;;;;;;4.22;1.20;;;21.40;99.90;;;;;;5021051;28;20243;-68
2022/09/09 11:03:04;;;;;;;8.70;1.67;;;21.10;99.90;;;;;;5021785;28;20049;-71
2022/09/09 11:05:35;;;;;;;5.97;1.10;;;20.80;99.90;;;;;;5024076;28;20042;-71
2022/09/09 11:08:21;;;;;;;5.30;1.35;;;20.50;99.90;;;;;;5020655;28;20052;-70
2022/09/09 11:10:48;;;;;;;7.45;1.52;;;20.20;99.90;;;;;;5017813;28;20034;-71
2022/09/09 11:13:51;;;;;;;7.57;1.38;;;20.10;99.90;;;;;;5019380;28;20513;-71
2022/09/09 11:16:25;;;;;;;7.60;1.17;;;20.20;99.90;;;;;;5021697;28;20045;-71
2022/09/09 11:19:11;;;;;;;5.18;1.15;;;20.40;99.90;;;;;;5024491;28;20634;-70
2022/09/09 11:21:46;;;;;;;7.13;1.35;;;20.40;99.90;;;;;;5021902;28;20046;-71
2022/09/09 11:24:41;;;;;;;7.10;1.30;;;20.50;99.90;;;;;;5019897;28;20054;-71
2022/09/09 11:27:21;;;;;;;4.82;1.23;;;20.50;99.90;;;;;;5023508;28;20083;-69
2022/09/09 11:30:13;;;;;;;20.90;14.95;;;20.40;99.90;;;;;;5017143;28;20061;-70
2022/09/09 11:33:10;;;;;;;5.75;1.27;;;20.30;99.90;;;;;;5016237;28;20074;-70
2022/09/09 11:36:10;;;;;;;5.90;1.23;;;20.00;99.90;;;;;;5016278;28;20347;-70
2022/09/09 11:38:47;;;;;;;7.97;1.15;;;19.80;99.90;;;;;;5018640;28;20045;-71
2022/09/09 11:41:15;;;;;;;7.72;1.20;;;19.60;99.90;;;;;;5018279;28;20045;-71
2022/09/09 11:43:51;;;;;;;10.02;1.40;;;19.50;99.90;;;;;;5028223;28;20081;-71
2022/09/09 11:46:20;;;;;;;8.32;1.25;;;19.40;99.90;;;;;;5021826;28;20034;-71
2022/09/09 11:48:58;;;;;;;9.02;1.73;;;19.30;99.90;;;;;;5021464;28;20060;-71
2022/09/09 11:51:24;;;;;;;8.23;1.25;;;19.20;99.90;;;;;;5026417;28;20053;-71
2022/09/09 11:53:55;;;;;;;7.55;1.88;;;19.30;99.90;;;;;;5024099;28;20046;-71
2022/09/09 11:56:26;;;;;;;7.07;1.52;;;19.50;99.90;;;;;;5025816;28;20124;-71
2022/09/09 11:59:03;;;;;;;8.93;1.77;;;19.90;99.90;;;;;;5015808;28;20144;-71
2022/09/09 12:01:42;;;;;;;5.78;1.25;;;20.60;99.90;;;;;;5025203;28;20098;-71
2022/09/09 12:04:35;;;;;;;5.47;1.30;;;21.20;99.90;;;;;;5021037;28;20041;-71
2022/09/09 12:07:08;;;;;;;5.80;1.52;;;21.60;99.90;;;;;;5025959;28;20505;-71
2022/09/09 12:09:46;;;;;;;9.32;1.73;;;21.70;99.90;;;;;;5022882;28;20041;-71
2022/09/09 12:12:11;;;;;;;6.95;1.40;;;21.80;99.90;;;;;;5022618;28;20038;-71
2022/09/09 12:14:57;;;;;;;6.85;1.27;;;22.30;99.90;;;;;;5023777;28;20374;-71
2022/09/09 12:17:25;;;;;;;7.63;1.45;;;22.40;99.90;;;;;;5023733;28;20065;-71
2022/09/09 12:20:22;;;;;;;5.75;1.42;;;22.40;99.90;;;;;;5026618;28;20038;-71
2022/09/09 12:23:12;;;;;;;5.70;1.52;;;22.20;99.90;;;;;;5053884;28;20061;-71
2022/09/09 12:25:59;;;;;;;5.15;1.58;;;21.80;99.90;;;;;;5025441;28;20045;-70
2022/09/09 12:28:51;;;;;;;6.30;1.23;;;21.30;99.90;;;;;;5021544;28;20453;-71
2022/09/09 12:31:46;;;;;;;4.07;1.08;;;21.00;99.90;;;;;;5040314;28;20049;-71
2022/09/09 12:34:31;;;;;;;7.05;1.40;;;20.80;99.90;;;;;;5021378;28;20128;-70
2022/09/09 12:37:17;;;;;;;6.53;1.42;;;20.70;99.90;;;;;;5020548;28;20357;-70
2022/09/09 12:40:06;;;;;;;5.28;1.20;;;21.10;99.90;;;;;;5021833;28;20042;-71
2022/09/09 12:42:33;;;;;;;4.97;1.10;;;21.90;99.90;;;;;;5055751;28;20417;-70
2022/09/09 12:45:00;;;;;;;6.05;1.10;;;22.30;99.90;;;;;;5015886;28;20520;-70
2022/09/09 12:47:30;;;;;;;11.57;2.58;;;21.90;99.90;;;;;;5030490;28;20041;-69
2022/09/09 12:49:56;;;;;;;8.15;1.38;;;21.40;99.90;;;;;;5015709;28;20067;-72
2022/09/09 12:52:33;;;;;;;8.60;1.30;;;21.20;99.90;;;;;;5053558;28;20549;-72
2022/09/09 12:55:01;;;;;;;5.47;1.05;;;21.00;99.90;;;;;;5019847;28;20490;-72
2022/09/09 12:57:35;;;;;;;6.57;1.42;;;21.40;99.90;;;;;;5023415;28;20482;-72
2022/09/09 13:00:18;;;;;;;;;;;22.30;99.90;;;;;;5022540;28;20092;-74
2022/09/09 13:02:50;;;;;;;4.95;0.73;;;23.40;99.90;;;;;;5020405;28;19964;-72
2022/09/09 13:05:29;;;;;;;6.63;0.80;;;24.40;99.90;;;;;;5014414;28;20045;-70
2022/09/09 13:08:06;;;;;;;4.55;0.93;;;25.10;99.90;;;;;;5021785;28;20041;-73
2022/09/09 13:10:39;;;;;;;3.83;0.88;;;25.50;99.90;;;;;;5014877;28;20164;-72